Time;durP1;ratioP1;P1;durP2;ratioP2;P2;SDS_P1;SDS_P2;PMS_P1;PMS_P2;Temp;Humidity;BMP_temperature;BMP_pressure;BME280_temperature;BME280_humidity;BME280_pressure;Samples;Min_cycle;Max_cycle;Signal;HPM_P1;HPM_P2
2023/06/21 00:00:47;;;;;;;34.33;5.53;;;;;;;-144.73;100.00;54276.34;4950334;28;20011;-77
2023/06/21 00:03:13;;;;;;;26.35;5.25;;;;;;;-144.73;100.00;54259.91;4984363;28;20125;-75
2023/06/21 00:05:39;;;;;;;26.92;4.65;;;;;;;-144.73;100.00;54342.03;5010990;28;20050;-76
2023/06/21 00:08:04;;;;;;;24.65;5.28;;;;;;;-144.73;100.00;54276.34;4987398;28;20049;-77
2023/06/21 00:10:30;;;;;;;24.85;5.43;;;;;;;-144.73;100.00;54243.50;5008798;28;20100;-77
2023/06/21 00:12:56;;;;;;;24.33;4.90;;;;;;;-144.73;100.00;54255.81;5003006;28;20038;-76
2023/06/21 00:15:22;;;;;;;20.13;4.88;;;;;;;-144.73;100.00;54282.50;4981252;28;20044;-76
2023/06/21 00:17:49;;;;;;;20.52;6.05;;;;;;;-144.73;100.00;54259.91;4986897;28;20113;-75
2023/06/21 00:20:14;;;;;;;16.27;5.47;;;;;;;-144.73;100.00;54237.34;5004972;28;20104;-74
2023/06/21 00:22:41;;;;;;;17.00;4.88;;;;;;;-144.73;100.00;54235.28;4980004;28;20550;-73
2023/06/21 00:25:07;;;;;;;14.77;3.80;;;;;;;-144.73;100.00;54309.19;4998878;28;20033;-73
2023/06/21 00:27:35;;;;;;;9.68;3.22;;;;;;;-144.73;100.00;54251.72;4980940;28;20041;-74
2023/06/21 00:30:00;;;;;;;12.18;3.70;;;;;;;-144.73;100.00;54280.44;4987273;28;20030;-74
2023/06/21 00:32:25;;;;;;;17.50;3.65;;;;;;;-144.73;100.00;54300.97;5009422;28;20060;-74
2023/06/21 00:34:51;;;;;;;10.65;3.58;;;;;;;-144.73;100.00;54342.03;5011652;28;20022;-75
2023/06/21 00:37:16;;;;;;;14.50;4.05;;;;;;;-144.73;100.00;54247.59;5009977;28;20041;-74
2023/06/21 00:39:42;;;;;;;16.60;4.05;;;;;;;-144.73;100.00;54235.28;4993203;28;20046;-75
2023/06/21 00:42:08;;;;;;;15.05;4.75;;;;;;;-144.73;100.00;54231.19;4993289;28;20058;-75
2023/06/21 00:44:34;;;;;;;9.65;3.13;;;;;;;-144.73;100.00;54276.34;4999964;28;20118;-75
2023/06/21 00:46:59;;;;;;;14.80;3.72;;;;;;;-144.73;100.00;54259.91;4995090;28;20066;-75
2023/06/21 00:49:25;;;;;;;12.82;3.33;;;;;;;-144.73;100.00;54288.66;4991082;28;20061;-76
2023/06/21 00:51:58;;;;;;;11.60;3.50;;;;;;;-144.73;100.00;54247.59;4985998;28;20026;-75
2023/06/21 00:54:31;;;;;;;7.35;3.20;;;;;;;-144.73;100.00;54268.13;4982619;28;20110;-77
2023/06/21 00:56:57;;;;;;;9.35;3.17;;;;;;;-144.73;100.00;54342.03;4993671;28;20065;-75
2023/06/21 00:59:27;;;;;;;12.73;3.35;;;;;;;-144.73;100.00;54284.56;4973003;28;20053;-75
2023/06/21 01:01:55;;;;;;;10.23;3.00;;;;;;;-144.73;100.00;54280.44;4976065;28;20026;-74
2023/06/21 01:04:25;;;;;;;9.57;3.42;;;;;;;-144.73;100.00;54243.50;4989159;28;20014;-75
2023/06/21 01:07:05;;;;;;;8.20;3.05;;;;;;;-144.73;100.00;54276.34;4975568;28;20038;-75
2023/06/21 01:09:37;;;;;;;13.27;3.35;;;;;;;-144.73;100.00;54276.34;4993800;28;20026;-76
2023/06/21 01:12:21;;;;;;;16.13;3.35;;;;;;;-144.73;100.00;54276.34;4978323;28;20069;-75
2023/06/21 01:14:59;;;;;;;8.60;3.22;;;;;;;-144.73;100.00;54313.28;5005846;28;20154;-74
2023/06/21 01:17:28;;;;;;;7.78;3.53;;;;;;;-144.73;100.00;54276.34;4989774;28;20061;-75
2023/06/21 01:19:57;;;;;;;6.50;2.53;;;;;;;-144.73;100.00;54278.41;4981058;28;20113;-74
2023/06/21 01:22:56;;;;;;;9.35;2.95;;;;;;;-144.73;100.00;54284.56;4991045;28;20030;-75
2023/06/21 01:25:45;;;;;;;6.68;2.97;;;;;;;-144.73;100.00;54276.34;4982000;28;20046;-75
2023/06/21 01:28:41;;;;;;;8.55;2.95;;;;;;;-144.73;100.00;54317.38;4977582;28;20068;-76
2023/06/21 01:31:09;;;;;;;9.52;3.47;;;;;;;-144.73;100.00;54276.34;4974506;28;20022;-75
2023/06/21 01:33:35;;;;;;;6.15;3.28;;;;;;;-144.73;100.00;54288.66;4980055;28;20104;-74
2023/06/21 01:36:03;;;;;;;10.18;3.13;;;;;;;-144.73;100.00;54290.72;4989498;28;20057;-75
2023/06/21 01:38:29;;;;;;;8.60;3.72;;;;;;;-144.73;100.00;54313.28;5003545;28;20038;-75
2023/06/21 01:40:54;;;;;;;8.98;3.55;;;;;;;-144.73;100.00;54276.34;4988868;28;20029;-75
2023/06/21 01:43:21;;;;;;;8.85;3.58;;;;;;;-144.73;100.00;54321.50;4988256;28;20033;-75
2023/06/21 01:45:47;;;;;;;19.67;3.28;;;;;;;-144.73;100.00;54259.91;4975439;28;20025;-75
2023/06/21 01:48:14;;;;;;;11.85;3.50;;;;;;;-144.73;100.00;54294.81;4983539;28;20030;-75
2023/06/21 01:50:40;;;;;;;9.02;3.33;;;;;;;-144.73;100.00;54296.88;4994205;28;20038;-75
2023/06/21 01:53:06;;;;;;;7.95;3.53;;;;;;;-144.73;100.00;54296.88;4981005;28;20030;-75
2023/06/21 01:55:32;;;;;;;6.72;3.40;;;;;;;-144.73;100.00;54325.59;5001521;28;20025;-75
2023/06/21 01:57:57;;;;;;;7.80;3.58;;;;;;;-144.73;100.00;54321.50;4980745;28;20033;-75
2023/06/21 02:00:25;;;;;;;9.00;3.63;;;;;;;-144.73;100.00;54321.50;4996175;28;20023;-75
2023/06/21 02:02:55;;;;;;;9.43;3.97;;;;;;;-144.73;100.00;54288.66;4987522;28;20109;-74
2023/06/21 02:05:21;;;;;;;10.45;3.97;;;;;;;-144.73;100.00;54292.75;4986477;28;20018;-74
2023/06/21 02:07:48;;;;;;;7.20;4.13;;;;;;;-144.73;100.00;54259.91;4976812;28;20045;-74
2023/06/21 02:10:18;;;;;;;11.20;4.03;;;;;;;-144.73;100.00;54305.06;4995732;28;20113;-74
2023/06/21 02:12:50;;;;;;;7.80;3.75;;;;;;;-144.73;100.00;54303.03;5006782;28;20033;-74
2023/06/21 02:15:16;;;;;;;9.65;4.30;;;;;;;-144.73;100.00;54288.66;5007827;28;20014;-74
2023/06/21 02:17:51;;;;;;;13.57;4.25;;;;;;;-144.73;100.00;54276.34;4997608;28;20046;-74
2023/06/21 02:20:19;;;;;;;10.73;4.30;;;;;;;-144.73;100.00;54284.56;4986849;28;20018;-73
2023/06/21 02:22:46;;;;;;;16.83;4.10;;;;;;;-144.73;100.00;54247.59;4985768;28;20031;-74
2023/06/21 02:25:12;;;;;;;9.15;4.43;;;;;;;-144.73;100.00;54309.19;5005129;28;20075;-74
2023/06/21 02:27:38;;;;;;;9.60;5.45;;;;;;;-144.73;100.00;54321.50;4998958;28;20045;-74
2023/06/21 02:30:05;;;;;;;16.80;4.78;;;;;;;-144.73;100.00;54247.59;5002007;28;20023;-73
2023/06/21 02:32:30;;;;;;;10.95;5.47;;;;;;;-144.73;100.00;54292.75;5001833;28;20062;-73
2023/06/21 02:34:55;;;;;;;8.80;4.75;;;;;;;-144.73;100.00;54261.97;4988460;28;20103;-74
2023/06/21 02:37:21;;;;;;;13.70;4.90;;;;;;;-144.73;100.00;54280.44;5002302;28;20123;-73
2023/06/21 02:39:46;;;;;;;7.70;4.50;;;;;;;-144.73;100.00;54317.38;4984939;28;20030;-73
2023/06/21 02:42:11;;;;;;;9.15;4.30;;;;;;;-144.73;100.00;54313.28;4999760;28;20038;-74
2023/06/21 02:44:37;;;;;;;15.48;4.55;;;;;;;-144.73;100.00;54309.19;4996531;28;20053;-74
2023/06/21 02:47:02;;;;;;;12.98;5.60;;;;;;;-144.73;100.00;54309.19;4986378;28;20068;-74
2023/06/21 02:49:28;;;;;;;10.52;5.63;;;;;;;-144.73;100.00;54298.91;4983071;28;20077;-74
2023/06/21 02:51:53;;;;;;;11.27;5.43;;;;;;;-144.73;100.00;54313.28;4997040;28;20407;-74
2023/06/21 02:54:19;;;;;;;13.93;5.15;;;;;;;-144.73;100.00;54374.84;4992927;28;20034;-74
2023/06/21 02:56:44;;;;;;;16.02;5.10;;;;;;;-144.73;100.00;54313.28;4981883;28;20054;-75
2023/06/21 02:59:10;;;;;;;13.23;5.13;;;;;;;-144.73;100.00;54313.28;4991670;28;20061;-74
2023/06/21 03:01:36;;;;;;;14.65;5.47;;;;;;;-144.73;100.00;54319.44;4997518;28;20078;-74
2023/06/21 03:04:02;;;;;;;14.20;7.00;;;;;;;-144.73;100.00;54296.88;4998972;28;20113;-74
2023/06/21 03:06:29;;;;;;;13.68;5.82;;;;;;;-144.73;100.00;54300.97;4992066;28;20034;-74
2023/06/21 03:08:57;;;;;;;10.55;5.80;;;;;;;-144.73;100.00;54317.38;4988404;28;20085;-74
2023/06/21 03:11:23;;;;;;;15.98;6.78;;;;;;;-144.73;100.00;54280.44;4981214;28;20113;-74
2023/06/21 03:13:48;;;;;;;18.02;6.45;;;;;;;-144.73;100.00;54317.38;4984633;28;20104;-75
2023/06/21 03:16:14;;;;;;;17.92;6.88;;;;;;;-144.73;100.00;54325.59;5006928;28;20018;-74
2023/06/21 03:18:39;;;;;;;19.42;6.85;;;;;;;-144.73;100.00;54276.34;4995405;28;20044;-74
2023/06/21 03:21:04;;;;;;;12.30;6.50;;;;;;;-144.73;100.00;54335.88;4981797;28;20105;-73
2023/06/21 03:23:30;;;;;;;20.10;7.13;;;;;;;-144.73;100.00;54280.44;5006068;28;20037;-75
2023/06/21 03:25:55;;;;;;;15.15;7.85;;;;;;;-144.73;100.00;54317.38;4980359;28;20088;-74
2023/06/21 03:28:21;;;;;;;17.27;7.80;;;;;;;-144.73;100.00;54342.03;5001749;28;20051;-73
2023/06/21 03:30:46;;;;;;;12.38;6.03;;;;;;;-144.73;100.00;54298.91;4998551;28;20026;-73
2023/06/21 03:33:12;;;;;;;12.45;6.43;;;;;;;-144.73;100.00;54329.72;4993061;28;20128;-74
2023/06/21 03:35:37;;;;;;;17.13;7.00;;;;;;;-144.73;100.00;54333.81;4983544;28;21388;-74
2023/06/21 03:38:02;;;;;;;15.77;6.95;;;;;;;-144.73;100.00;54325.59;5002647;28;20045;-74
2023/06/21 03:40:28;;;;;;;10.45;5.63;;;;;;;-144.73;100.00;54309.19;4977696;28;20085;-73
2023/06/21 03:42:54;;;;;;;16.77;7.18;;;;;;;-144.73;100.00;54325.59;4981231;28;20487;-72
2023/06/21 03:45:19;;;;;;;17.65;6.95;;;;;;;-144.73;100.00;54313.28;4990349;28;20098;-73
2023/06/21 03:47:45;;;;;;;17.35;7.88;;;;;;;-144.73;100.00;54284.56;5002102;28;20076;-73
2023/06/21 03:50:11;;;;;;;18.65;7.93;;;;;;;-144.73;100.00;54309.19;5005934;28;20053;-74
2023/06/21 03:52:37;;;;;;;21.40;8.52;;;;;;;-144.73;100.00;54333.81;4991524;28;20030;-73
2023/06/21 03:55:02;;;;;;;15.15;8.32;;;;;;;-144.73;100.00;54288.66;4989787;28;20032;-72
2023/06/21 03:57:28;;;;;;;17.70;8.23;;;;;;;-144.73;100.00;54311.22;4999340;28;20040;-73
2023/06/21 03:59:53;;;;;;;18.40;8.38;;;;;;;-144.73;100.00;54317.38;5004195;28;20023;-73
2023/06/21 04:02:21;;;;;;;16.83;8.63;;;;;;;-144.73;100.00;54292.75;4992332;28;20038;-72
2023/06/21 04:04:47;;;;;;;15.63;8.95;;;;;;;-144.73;100.00;54350.22;5004767;28;20018;-73
2023/06/21 04:07:13;;;;;;;22.08;8.60;;;;;;;-144.73;100.00;54337.91;4995987;28;20041;-72
2023/06/21 04:09:38;;;;;;;18.40;8.90;;;;;;;-144.73;100.00;54333.81;5004174;28;20142;-73
2023/06/21 04:12:04;;;;;;;19.48;10.23;;;;;;;-144.73;100.00;54333.81;4996866;28;20027;-73
2023/06/21 04:14:29;;;;;;;22.23;10.20;;;;;;;-144.73;100.00;54284.56;5001318;28;20018;-72
2023/06/21 04:16:54;;;;;;;17.40;8.88;;;;;;;-144.73;100.00;54333.81;4988780;28;20030;-72
2023/06/21 04:19:20;;;;;;;20.00;10.20;;;;;;;-144.73;100.00;54337.91;5007353;28;20107;-72
2023/06/21 04:21:45;;;;;;;18.73;10.95;;;;;;;-144.73;100.00;54307.13;4990601;28;20413;-72
2023/06/21 04:24:11;;;;;;;16.23;11.05;;;;;;;-144.73;100.00;54294.81;4992299;28;20021;-73
2023/06/21 04:26:36;;;;;;;16.92;10.98;;;;;;;-144.73;100.00;54309.19;4988604;28;20049;-71
2023/06/21 04:29:01;;;;;;;18.15;10.75;;;;;;;-144.73;100.00;54300.97;4985692;28;20105;-72
2023/06/21 04:31:28;;;;;;;20.00;12.27;;;;;;;-144.73;100.00;54325.59;5001539;28;20451;-72
2023/06/21 04:33:57;;;;;;;24.55;12.20;;;;;;;-144.73;100.00;54329.72;5004161;28;20026;-72
2023/06/21 04:36:24;;;;;;;20.48;12.95;;;;;;;-144.73;100.00;54300.97;5008313;28;20022;-72
2023/06/21 04:38:50;;;;;;;25.30;12.38;;;;;;;-144.73;100.00;54309.19;4980822;28;20061;-72
2023/06/21 04:41:17;;;;;;;19.10;12.63;;;;;;;-144.73;100.00;54309.19;4999252;28;20068;-72
2023/06/21 04:43:43;;;;;;;26.27;13.32;;;;;;;-144.73;100.00;54309.19;4975283;28;20022;-72
2023/06/21 04:46:08;;;;;;;22.95;13.13;;;;;;;-144.73;100.00;54325.59;4981436;28;20041;-71
2023/06/21 04:48:34;;;;;;;23.70;13.65;;;;;;;-144.73;100.00;54333.81;4981499;28;20747;-71
2023/06/21 04:50:59;;;;;;;22.92;13.32;;;;;;;-144.73;100.00;54321.50;4996759;28;20018;-71
2023/06/21 04:53:28;;;;;;;21.52;13.30;;;;;;;-144.73;100.00;54337.91;4982996;28;20042;-74
2023/06/21 04:55:54;;;;;;;20.15;12.60;;;;;;;-144.73;100.00;54325.59;4981669;28;20014;-71
2023/06/21 04:58:19;;;;;;;17.73;12.32;;;;;;;-144.73;100.00;54321.50;5003194;28;20044;-72
2023/06/21 05:00:45;;;;;;;16.95;11.82;;;;;;;-144.73;100.00;54313.28;4994019;28;20026;-72
2023/06/21 05:03:10;;;;;;;18.92;12.30;;;;;;;-144.73;100.00;54317.38;4982531;28;20034;-71
2023/06/21 05:05:35;;;;;;;16.23;11.65;;;;;;;-144.73;100.00;54305.06;4983603;28;20052;-72
2023/06/21 05:08:01;;;;;;;17.15;10.80;;;;;;;-144.73;100.00;54329.72;5008500;28;20145;-71
2023/06/21 05:10:26;;;;;;;19.55;11.95;;;;;;;-144.73;100.00;54284.56;4977018;28;20034;-71
2023/06/21 05:12:51;;;;;;;16.08;12.00;;;;;;;-144.73;100.00;54350.22;4980556;28;20109;-71
2023/06/21 05:15:17;;;;;;;19.05;11.85;;;;;;;-144.73;100.00;54296.88;4981226;28;20046;-71
2023/06/21 05:17:42;;;;;;;14.50;11.07;;;;;;;-144.73;100.00;54354.34;4983454;28;20141;-71
2023/06/21 05:20:08;;;;;;;18.02;11.30;;;;;;;-144.73;100.00;54305.06;5003492;28;20025;-71
2023/06/21 05:22:34;;;;;;;22.02;12.40;;;;;;;-144.73;100.00;54309.19;4982690;28;20030;-73
2023/06/21 05:25:02;;;;;;;19.67;13.60;;;;;;;-144.73;100.00;54358.44;5004235;28;20017;-71
2023/06/21 05:27:27;;;;;;;23.08;14.07;;;;;;;-144.73;100.00;54313.28;4995743;28;20042;-73
2023/06/21 05:29:52;;;;;;;22.35;15.50;;;;;;;-144.73;100.00;54354.34;4994479;28;20033;-72
2023/06/21 05:32:18;;;;;;;20.70;16.30;;;;;;;-144.73;100.00;54333.81;4994632;28;20035;-72
2023/06/21 05:34:43;;;;;;;27.45;17.58;;;;;;;-144.73;100.00;54329.72;4981965;28;20021;-72
2023/06/21 05:37:09;;;;;;;27.38;20.67;;;;;;;-144.73;100.00;54358.44;4995855;28;20061;-72
2023/06/21 05:39:34;;;;;;;29.52;19.58;;;;;;;-144.73;100.00;54313.28;4979896;28;20027;-72
2023/06/21 05:42:00;;;;;;;30.42;21.00;;;;;;;-144.73;100.00;54329.72;5008455;28;20041;-72
2023/06/21 05:44:25;;;;;;;30.45;22.13;;;;;;;-144.73;100.00;54321.50;4999424;28;20057;-72
2023/06/21 05:46:50;;;;;;;28.30;19.75;;;;;;;-144.73;100.00;54346.13;4984314;28;20042;-71
2023/06/21 05:49:17;;;;;;;34.50;21.88;;;;;;;-144.73;100.00;54354.34;4976396;28;20018;-72
2023/06/21 05:51:42;;;;;;;32.65;22.92;;;;;;;-144.73;100.00;54358.44;4984087;28;20030;-72
2023/06/21 05:54:08;;;;;;;35.70;25.08;;;;;;;-144.73;100.00;54342.03;4995973;28;20073;-73
2023/06/21 05:56:37;;;;;;;36.35;23.02;;;;;;;-144.73;100.00;54354.34;4978212;28;20026;-72
2023/06/21 05:59:03;;;;;;;46.03;28.15;;;;;;;-144.73;100.00;54383.06;4993177;28;20043;-72
2023/06/21 06:01:28;;;;;;;42.28;27.80;;;;;;;-144.73;100.00;54329.72;4991831;28;20076;-72
2023/06/21 06:03:53;;;;;;;48.35;28.88;;;;;;;-144.73;100.00;54319.44;4992593;28;20026;-72
2023/06/21 06:06:19;;;;;;;43.97;29.00;;;;;;;-144.73;100.00;54327.66;4995836;28;20104;-72
2023/06/21 06:08:45;;;;;;;46.35;28.08;;;;;;;-144.73;100.00;54358.44;5000690;28;20173;-73
2023/06/21 06:11:10;;;;;;;42.92;27.77;;;;;;;-144.73;100.00;54296.88;4976255;28;20026;-73
2023/06/21 06:13:35;;;;;;;44.83;30.08;;;;;;;-144.73;100.00;54323.53;4977196;28;20034;-73
2023/06/21 06:16:02;;;;;;;48.88;29.75;;;;;;;-144.73;100.00;54333.81;4995799;28;20470;-73
2023/06/21 06:18:27;;;;;;;49.28;31.63;;;;;;;-144.73;100.00;54319.44;5001487;28;20065;-73
2023/06/21 06:20:53;;;;;;;48.03;31.83;;;;;;;-144.73;100.00;54354.34;4989276;28;20120;-73
2023/06/21 06:23:18;;;;;;;52.65;32.42;;;;;;;-144.73;100.00;54350.22;4987788;28;20030;-73
2023/06/21 06:25:44;;;;;;;55.70;32.38;;;;;;;-144.73;100.00;54350.22;4993762;28;20022;-73
2023/06/21 06:28:09;;;;;;;49.03;32.63;;;;;;;-144.73;100.00;54358.44;4994631;28;20098;-73
2023/06/21 06:30:35;;;;;;;47.50;31.77;;;;;;;-144.73;100.00;54350.22;4994021;28;20065;-73
2023/06/21 06:33:00;;;;;;;55.60;33.95;;;;;;;-144.73;100.00;54313.28;4997537;28;20442;-73
2023/06/21 06:35:27;;;;;;;59.10;32.78;;;;;;;-144.73;100.00;54319.44;5005366;28;20029;-74
2023/06/21 06:37:53;;;;;;;51.47;33.15;;;;;;;-144.73;100.00;54311.22;5009214;28;20032;-74
2023/06/21 06:40:18;;;;;;;45.95;31.60;;;;;;;-144.73;100.00;54292.75;4992467;28;20033;-74
2023/06/21 06:42:44;;;;;;;50.28;32.78;;;;;;;-144.73;100.00;54317.38;4991534;28;20042;-74
2023/06/21 06:45:10;;;;;;;38.92;28.80;;;;;;;-144.73;100.00;54329.72;5007247;28;20466;-74
2023/06/21 06:47:35;;;;;;;44.28;29.58;;;;;;;-144.73;100.00;54313.28;5005989;28;20057;-74
2023/06/21 06:50:04;;;;;;;45.75;30.08;;;;;;;-144.73;100.00;54305.06;4992229;28;20034;-74
2023/06/21 06:52:30;;;;;;;50.88;32.08;;;;;;;-144.73;100.00;54350.22;5007197;28;20117;-75
2023/06/21 06:54:55;;;;;;;41.22;29.50;;;;;;;-144.73;100.00;54309.19;5008350;28;20097;-75
2023/06/21 06:57:22;;;;;;;43.70;29.98;;;;;;;-144.73;100.00;54325.59;5008725;28;20135;-75
2023/06/21 06:59:47;;;;;;;43.88;29.83;;;;;;;-144.73;100.00;54354.34;5006667;28;20090;-74
2023/06/21 07:02:13;;;;;;;46.20;30.15;;;;;;;-144.73;100.00;54342.03;5010224;28;20105;-75
2023/06/21 07:04:38;;;;;;;44.38;30.20;;;;;;;-144.73;100.00;54315.34;4992850;28;20026;-75
2023/06/21 07:07:04;;;;;;;35.88;27.48;;;;;;;-144.73;100.00;54321.50;4989260;28;20514;-75
2023/06/21 07:09:29;;;;;;;37.17;25.38;;;;;;;-144.73;100.00;54300.97;4988539;28;20109;-75
2023/06/21 07:11:59;;;;;;;34.38;26.73;;;;;;;-144.73;100.00;54337.91;4993268;28;20117;-74
2023/06/21 07:14:24;;;;;;;34.42;24.67;;;;;;;-144.73;100.00;54372.81;4993974;28;20029;-73
2023/06/21 07:16:50;;;;;;;35.97;26.33;;;;;;;-144.73;100.00;54307.13;4994478;28;20030;-75
2023/06/21 07:19:16;;;;;;;33.10;24.50;;;;;;;-144.73;100.00;54337.91;5004229;28;20026;-74
2023/06/21 07:21:41;;;;;;;32.60;25.40;;;;;;;-144.73;100.00;54305.06;5011846;28;20037;-74
2023/06/21 07:24:07;;;;;;;33.80;27.25;;;;;;;-144.73;100.00;54337.91;5012141;28;20030;-74
2023/06/21 07:26:33;;;;;;;31.08;25.48;;;;;;;-144.73;100.00;54350.22;4993491;28;20030;-73
2023/06/21 07:28:59;;;;;;;35.20;24.02;;;;;;;-144.73;100.00;54337.91;4994744;28;20022;-73
2023/06/21 07:31:24;;;;;;;34.90;25.17;;;;;;;-144.73;100.00;54292.75;4994097;28;20037;-73
2023/06/21 07:33:55;;;;;;;28.60;23.02;;;;;;;-144.73;100.00;54268.13;4994846;28;20022;-74
2023/06/21 07:36:21;;;;;;;31.60;22.73;;;;;;;-144.73;100.00;54296.88;4994839;28;20044;-73
2023/06/21 07:38:48;;;;;;;32.90;23.25;;;;;;;-144.73;100.00;54292.75;4994470;28;20037;-73
2023/06/21 07:41:14;;;;;;;27.70;20.77;;;;;;;-144.73;100.00;54329.72;5012135;28;20026;-73
2023/06/21 07:43:39;;;;;;;24.67;18.13;;;;;;;-144.73;100.00;54255.81;4993224;28;20175;-73
2023/06/21 07:46:04;;;;;;;27.55;19.30;;;;;;;-144.73;100.00;54300.97;4993572;28;20014;-74
2023/06/21 07:48:30;;;;;;;23.63;18.50;;;;;;;-144.73;100.00;54294.81;5009742;28;20133;-73
2023/06/21 07:50:55;;;;;;;21.40;18.17;;;;;;;-144.73;100.00;54317.38;5012019;28;20472;-73
2023/06/21 07:53:20;;;;;;;25.90;19.15;;;;;;;-144.73;100.00;54305.06;4994110;28;20034;-73
2023/06/21 07:55:46;;;;;;;28.08;19.20;;;;;;;-144.73;100.00;54342.03;4994786;28;20061;-74
2023/06/21 07:58:11;;;;;;;22.13;18.58;;;;;;;-144.73;100.00;54335.88;4993215;28;20034;-72
2023/06/21 08:00:36;;;;;;;26.48;21.00;;;;;;;-144.73;100.00;54305.06;4994292;28;20018;-72
2023/06/21 08:03:02;;;;;;;28.77;22.60;;;;;;;-144.73;100.00;54276.34;4993007;28;20038;-72
2023/06/21 08:05:27;;;;;;;30.27;24.95;;;;;;;-144.73;100.00;54305.06;4994021;28;20417;-72
2023/06/21 08:07:53;;;;;;;31.27;23.45;;;;;;;-144.73;100.00;54276.34;4993567;28;20113;-72
2023/06/21 08:10:19;;;;;;;30.60;22.73;;;;;;;-144.73;100.00;54313.28;4994287;28;20041;-72
2023/06/21 08:12:44;;;;;;;26.40;22.08;;;;;;;-144.73;100.00;54350.22;4993615;28;20056;-72
2023/06/21 08:15:10;;;;;;;25.63;20.75;;;;;;;-144.73;100.00;54333.81;4993526;28;20100;-73
2023/06/21 08:17:36;;;;;;;26.25;22.63;;;;;;;-144.73;100.00;54325.59;4993122;28;20160;-73
2023/06/21 08:20:03;;;;;;;32.50;22.35;;;;;;;-144.73;100.00;54305.06;4993227;28;20034;-72
2023/06/21 08:22:28;;;;;;;30.85;23.05;;;;;;;-144.73;100.00;54313.28;4992976;28;20033;-74
2023/06/21 08:24:54;;;;;;;28.35;22.42;;;;;;;-144.73;100.00;54300.97;4993920;28;20029;-72
2023/06/21 08:27:20;;;;;;;31.10;25.13;;;;;;;-144.73;100.00;54317.38;5009487;28;20038;-73
2023/06/21 08:29:47;;;;;;;25.67;21.80;;;;;;;-144.73;100.00;54325.59;4993311;28;20146;-73
2023/06/21 08:32:12;;;;;;;30.38;22.85;;;;;;;-144.73;100.00;54247.59;5010582;28;20069;-73
2023/06/21 08:34:37;;;;;;;31.85;21.40;;;;;;;-144.73;100.00;54288.66;4993414;28;20097;-72
2023/06/21 08:37:03;;;;;;;29.15;21.55;;;;;;;-144.73;100.00;54309.19;4992920;28;20037;-72
2023/06/21 08:39:28;;;;;;;24.45;19.58;;;;;;;-144.73;100.00;54292.75;5010647;28;20057;-72
2023/06/21 08:41:55;;;;;;;22.88;17.20;;;;;;;-144.73;100.00;54280.44;4992623;28;20490;-73
2023/06/21 08:44:21;;;;;;;22.05;15.27;;;;;;;-144.73;100.00;54292.75;4993087;28;20037;-73
2023/06/21 08:46:52;;;;;;;21.20;13.13;;;;;;;-144.73;100.00;54323.53;5010551;28;20129;-73
2023/06/21 08:49:18;;;;;;;24.55;14.55;;;;;;;-144.73;100.00;54325.59;4993057;28;20041;-73
2023/06/21 08:51:45;;;;;;;20.85;14.52;;;;;;;-144.73;100.00;54329.72;5009942;28;20073;-72
2023/06/21 08:54:13;;;;;;;16.85;13.52;;;;;;;-144.73;100.00;54290.72;4993694;28;20034;-72
2023/06/21 08:56:53;;;;;;;17.45;14.02;;;;;;;-144.73;100.00;54284.56;4992267;28;20025;-73
2023/06/21 08:59:36;;;;;;;23.08;13.75;;;;;;;-144.73;100.00;54280.44;4992147;28;20061;-73
2023/06/21 09:02:27;;;;;;;20.92;13.18;;;;;;;-144.73;100.00;54284.56;5010426;28;20052;-72
2023/06/21 09:04:56;;;;;;;20.17;14.85;;;;;;;-144.73;100.00;54276.34;5010835;28;20033;-73
2023/06/21 09:07:22;;;;;;;21.23;13.93;;;;;;;-144.73;100.00;54288.66;5010210;28;20042;-73
2023/06/21 09:09:51;;;;;;;19.83;14.90;;;;;;;-144.73;100.00;54325.59;4992890;28;20065;-72
2023/06/21 09:12:17;;;;;;;18.30;13.20;;;;;;;-144.73;100.00;54243.50;4992625;28;20034;-72
2023/06/21 09:14:43;;;;;;;18.38;12.77;;;;;;;-144.73;100.00;54288.66;4993107;28;20022;-72
2023/06/21 09:17:08;;;;;;;19.67;14.07;;;;;;;-144.73;100.00;54276.34;5010036;28;20033;-75
2023/06/21 09:19:37;;;;;;;20.02;12.00;;;;;;;-144.73;98.69;54259.91;5010609;28;20022;-73
2023/06/21 09:22:03;;;;;;;17.05;11.18;;;;;;;-144.73;97.40;54235.28;4992237;28;20040;-73
2023/06/21 09:24:29;;;;;;;16.45;9.68;;;;;;;-144.73;94.54;54243.50;4992966;28;20061;-72
2023/06/21 09:26:54;;;;;;;17.35;12.95;;;;;;;-144.73;94.53;54296.88;4992639;28;20072;-73
2023/06/21 09:29:20;;;;;;;22.30;11.32;;;;;;;-144.73;97.21;54329.72;4993310;28;20041;-72
2023/06/21 09:31:45;;;;;;;17.25;11.15;;;;;;;-144.73;96.91;54229.13;4992395;28;20030;-72
2023/06/21 09:34:10;;;;;;;19.90;11.05;;;;;;;-144.73;96.05;54300.97;5010662;28;20084;-72
2023/06/21 09:36:36;;;;;;;13.55;9.93;;;;;;;-144.73;95.06;54300.97;5009994;28;20026;-71
2023/06/21 09:39:11;;;;;;;15.13;11.10;;;;;;;-144.73;95.07;54251.72;5010367;28;20034;-73
2023/06/21 09:41:38;;;;;;;14.75;11.77;;;;;;;-144.73;93.02;54255.81;4992084;28;20033;-72
2023/06/21 09:44:04;;;;;;;25.80;11.73;;;;;;;-144.73;92.62;54282.50;4992543;28;20394;-71
2023/06/21 09:46:29;;;;;;;20.75;14.50;;;;;;;-144.73;95.47;54251.72;4992352;28;20036;-72
2023/06/21 09:49:08;;;;;;;19.52;12.45;;;;;;;-144.73;93.51;54259.91;4992709;28;20045;-73
2023/06/21 09:51:40;;;;;;;17.13;12.02;;;;;;;-144.73;92.79;54251.72;5009136;28;20061;-73
2023/06/21 09:54:07;;;;;;;17.42;8.57;;;;;;;-144.73;88.01;54300.97;5009997;28;20026;-73
2023/06/21 09:56:33;;;;;;;13.98;9.20;;;;;;;-144.73;87.69;54251.72;4992182;28;20026;-73
2023/06/21 09:59:00;;;;;;;12.32;8.52;;;;;;;-144.73;84.23;54288.66;4992812;28;20109;-71
2023/06/21 10:01:35;;;;;;;11.15;8.15;;;;;;;-144.73;82.71;54255.81;5009526;28;20018;-73
2023/06/21 10:04:01;;;;;;;16.63;10.38;;;;;;;-144.73;83.40;54294.81;5010121;28;20030;-72
2023/06/21 10:06:29;;;;;;;14.48;10.30;;;;;;;-144.73;84.37;54237.34;4992096;28;20017;-72
2023/06/21 10:08:54;;;;;;;13.00;9.32;;;;;;;-144.73;82.83;54235.28;4992614;28;20036;-72
2023/06/21 10:11:20;;;;;;;19.83;9.45;;;;;;;-144.73;82.96;54214.78;4994152;28;20038;-72
2023/06/21 10:13:45;;;;;;;15.80;11.05;;;;;;;-144.73;79.92;54342.03;4995391;28;20034;-72
2023/06/21 10:16:12;;;;;;;15.68;11.48;;;;;;;-144.73;78.95;54288.66;5013251;28;20030;-72
2023/06/21 10:18:38;;;;;;;17.30;10.60;;;;;;;-144.73;79.16;54292.75;4995526;28;20099;-71
2023/06/21 10:21:05;;;;;;;17.13;9.95;;;;;;;-144.73;76.84;54247.59;4995816;28;20057;-72
2023/06/21 10:23:34;;;;;;;14.80;10.15;;;;;;;-144.73;78.48;54282.50;5012777;28;20042;-72
2023/06/21 10:26:11;;;;;;;21.80;9.35;;;;;;;-144.73;79.47;54292.75;4995140;28;20026;-72
2023/06/21 10:28:39;;;;;;;15.95;11.25;;;;;;;-144.73;81.17;54350.22;4995185;28;20057;-72
2023/06/21 10:31:08;;;;;;;19.15;10.00;;;;;;;-144.73;78.70;54276.34;5012811;28;20029;-71
2023/06/21 10:33:35;;;;;;;22.05;12.43;;;;;;;-144.73;82.63;54305.06;5012714;28;20030;-72
2023/06/21 10:36:03;;;;;;;18.50;12.50;;;;;;;-144.73;78.58;54276.34;5012833;28;20054;-72
2023/06/21 10:38:43;;;;;;;23.02;10.93;;;;;;;-144.73;81.42;54313.28;4994804;28;20045;-71
2023/06/21 10:41:09;;;;;;;16.58;10.43;;;;;;;-144.73;77.13;54216.81;4995411;28;20037;-72
2023/06/21 10:43:35;;;;;;;15.95;11.02;;;;;;;-144.73;74.23;54247.59;4994972;28;20087;-72
2023/06/21 10:46:05;;;;;;;15.57;11.30;;;;;;;-144.73;74.00;54259.91;4994680;28;20029;-72
2023/06/21 10:48:33;;;;;;;15.83;9.47;;;;;;;-144.73;73.47;54239.41;5012304;28;20053;-72
2023/06/21 10:51:02;;;;;;;14.90;9.77;;;;;;;-144.73;74.23;54292.75;4995491;28;20541;-72
2023/06/21 10:53:35;;;;;;;10.55;8.57;;;;;;;-144.73;72.67;54251.72;4994568;28;20108;-72
2023/06/21 10:56:04;;;;;;;11.15;7.70;;;;;;;-144.73;71.36;54305.06;5012625;28;20029;-72
2023/06/21 10:58:30;;;;;;;11.75;7.97;;;;;;;-144.73;72.23;54259.91;5012355;28;20029;-72